sensor_id;sensor_type;location;lat;lon;timestamp;temperature;humidity
38973;DHT22;25333;50.762;4.470;2023-07-24T00:00:14;18.60;99.90
38973;DHT22;25333;50.762;4.470;2023-07-24T00:02:40;18.60;99.90
38973;DHT22;25333;50.762;4.470;2023-07-24T00:05:06;18.60;99.90
38973;DHT22;25333;50.762;4.470;2023-07-24T00:07:31;18.60;99.90
38973;DHT22;25333;50.762;4.470;2023-07-24T00:09:57;18.60;99.90
38973;DHT22;25333;50.762;4.470;2023-07-24T00:12:23;18.60;99.90
38973;DHT22;25333;50.762;4.470;2023-07-24T00:14:48;18.60;99.90
38973;DHT22;25333;50.762;4.470;2023-07-24T00:17:14;18.60;99.90
38973;DHT22;25333;50.762;4.470;2023-07-24T00:19:40;18.70;99.90
38973;DHT22;25333;50.762;4.470;2023-07-24T00:22:05;18.60;99.90
38973;DHT22;25333;50.762;4.470;2023-07-24T00:24:31;18.60;99.90
38973;DHT22;25333;50.762;4.470;2023-07-24T00:26:57;18.60;99.90
38973;DHT22;25333;50.762;4.470;2023-07-24T00:29:23;18.70;99.90
38973;DHT22;25333;50.762;4.470;2023-07-24T00:31:49;18.60;99.90
38973;DHT22;25333;50.762;4.470;2023-07-24T00:34:14;18.70;99.90
38973;DHT22;25333;50.762;4.470;2023-07-24T00:36:40;18.60;99.90
38973;DHT22;25333;50.762;4.470;2023-07-24T00:39:06;18.70;99.90
38973;DHT22;25333;50.762;4.470;2023-07-24T00:41:32;18.70;99.90
38973;DHT22;25333;50.762;4.470;2023-07-24T00:43:57;18.70;99.90
38973;DHT22;25333;50.762;4.470;2023-07-24T00:46:23;18.70;99.90
38973;DHT22;25333;50.762;4.470;2023-07-24T00:48:50;18.70;99.90
38973;DHT22;25333;50.762;4.470;2023-07-24T00:51:16;18.80;99.90
38973;DHT22;25333;50.762;4.470;2023-07-24T00:53:42;18.80;99.90
38973;DHT22;25333;50.762;4.470;2023-07-24T00:56:07;18.80;99.90
38973;DHT22;25333;50.762;4.470;2023-07-24T00:58:35;18.80;99.90
38973;DHT22;25333;50.762;4.470;2023-07-24T01:01:02;18.90;99.90
38973;DHT22;25333;50.762;4.470;2023-07-24T01:03:33;18.90;99.90
38973;DHT22;25333;50.762;4.470;2023-07-24T01:06:01;18.90;99.90
38973;DHT22;25333;50.762;4.470;2023-07-24T01:08:27;18.90;99.90
38973;DHT22;25333;50.762;4.470;2023-07-24T01:10:53;18.90;99.90
38973;DHT22;25333;50.762;4.470;2023-07-24T01:13:22;19.00;99.90
38973;DHT22;25333;50.762;4.470;2023-07-24T01:15:59;19.00;99.90
38973;DHT22;25333;50.762;4.470;2023-07-24T01:18:28;19.00;99.90
38973;DHT22;25333;50.762;4.470;2023-07-24T01:20:57;19.00;99.90
38973;DHT22;25333;50.762;4.470;2023-07-24T01:23:55;19.00;99.90
38973;DHT22;25333;50.762;4.470;2023-07-24T01:26:24;18.90;99.90
38973;DHT22;25333;50.762;4.470;2023-07-24T01:28:49;18.90;99.90
38973;DHT22;25333;50.762;4.470;2023-07-24T01:31:15;18.90;99.90
38973;DHT22;25333;50.762;4.470;2023-07-24T01:33:45;18.90;99.90
38973;DHT22;25333;50.762;4.470;2023-07-24T01:36:11;18.90;99.90
38973;DHT22;25333;50.762;4.470;2023-07-24T01:38:38;18.90;99.90
38973;DHT22;25333;50.762;4.470;2023-07-24T01:41:04;18.90;99.90
38973;DHT22;25333;50.762;4.470;2023-07-24T01:43:30;18.90;99.90
38973;DHT22;25333;50.762;4.470;2023-07-24T01:45:57;18.80;99.90
38973;DHT22;25333;50.762;4.470;2023-07-24T01:48:23;18.80;99.90
38973;DHT22;25333;50.762;4.470;2023-07-24T01:50:48;18.70;99.90
38973;DHT22;25333;50.762;4.470;2023-07-24T01:53:15;18.60;99.90
38973;DHT22;25333;50.762;4.470;2023-07-24T01:55:41;18.70;99.90
38973;DHT22;25333;50.762;4.470;2023-07-24T01:58:06;18.70;99.90
38973;DHT22;25333;50.762;4.470;2023-07-24T02:00:32;18.60;99.90
38973;DHT22;25333;50.762;4.470;2023-07-24T02:02:58;18.50;99.90
38973;DHT22;25333;50.762;4.470;2023-07-24T02:05:24;18.50;99.90
38973;DHT22;25333;50.762;4.470;2023-07-24T02:07:50;18.50;99.90
38973;DHT22;25333;50.762;4.470;2023-07-24T02:10:15;18.40;99.90
38973;DHT22;25333;50.762;4.470;2023-07-24T02:12:41;18.40;99.90
38973;DHT22;25333;50.762;4.470;2023-07-24T02:15:07;18.30;99.90
38973;DHT22;25333;50.762;4.470;2023-07-24T02:17:33;18.30;99.90
38973;DHT22;25333;50.762;4.470;2023-07-24T02:19:58;18.30;99.90
38973;DHT22;25333;50.762;4.470;2023-07-24T02:22:24;18.30;99.90
38973;DHT22;25333;50.762;4.470;2023-07-24T02:24:50;18.30;99.90
38973;DHT22;25333;50.762;4.470;2023-07-24T02:27:26;18.30;99.90
38973;DHT22;25333;50.762;4.470;2023-07-24T02:29:52;18.40;99.90
38973;DHT22;25333;50.762;4.470;2023-07-24T02:32:18;18.40;99.90
38973;DHT22;25333;50.762;4.470;2023-07-24T02:34:47;18.40;99.90
38973;DHT22;25333;50.762;4.470;2023-07-24T02:37:12;18.50;99.90
38973;DHT22;25333;50.762;4.470;2023-07-24T02:39:38;18.50;99.90
38973;DHT22;25333;50.762;4.470;2023-07-24T02:42:03;18.50;99.90
38973;DHT22;25333;50.762;4.470;2023-07-24T02:44:29;18.50;99.90
38973;DHT22;25333;50.762;4.470;2023-07-24T02:46:55;18.50;99.90
38973;DHT22;25333;50.762;4.470;2023-07-24T02:49:20;18.50;99.90
38973;DHT22;25333;50.762;4.470;2023-07-24T02:51:46;18.40;99.90
38973;DHT22;25333;50.762;4.470;2023-07-24T02:54:11;18.50;99.90
38973;DHT22;25333;50.762;4.470;2023-07-24T02:56:37;18.40;99.90
38973;DHT22;25333;50.762;4.470;2023-07-24T02:59:02;18.40;99.90
38973;DHT22;25333;50.762;4.470;2023-07-24T03:01:28;18.40;99.90
38973;DHT22;25333;50.762;4.470;2023-07-24T03:03:54;18.40;99.90
38973;DHT22;25333;50.762;4.470;2023-07-24T03:06:19;18.30;99.90
38973;DHT22;25333;50.762;4.470;2023-07-24T03:08:45;18.30;99.90
38973;DHT22;25333;50.762;4.470;2023-07-24T03:11:10;18.20;99.90
38973;DHT22;25333;50.762;4.470;2023-07-24T03:13:36;18.20;99.90
38973;DHT22;25333;50.762;4.470;2023-07-24T03:16:01;18.20;99.90
38973;DHT22;25333;50.762;4.470;2023-07-24T03:18:27;18.20;99.90
38973;DHT22;25333;50.762;4.470;2023-07-24T03:20:54;18.20;99.90
38973;DHT22;25333;50.762;4.470;2023-07-24T03:23:19;18.20;99.90
38973;DHT22;25333;50.762;4.470;2023-07-24T03:25:45;18.20;99.90
38973;DHT22;25333;50.762;4.470;2023-07-24T03:28:11;18.20;99.90
38973;DHT22;25333;50.762;4.470;2023-07-24T03:30:36;18.20;99.90
38973;DHT22;25333;50.762;4.470;2023-07-24T03:33:02;18.20;99.90
38973;DHT22;25333;50.762;4.470;2023-07-24T03:35:28;18.10;99.90
38973;DHT22;25333;50.762;4.470;2023-07-24T03:37:53;18.00;99.90
38973;DHT22;25333;50.762;4.470;2023-07-24T03:40:19;18.00;99.90
38973;DHT22;25333;50.762;4.470;2023-07-24T03:42:45;17.90;99.90
38973;DHT22;25333;50.762;4.470;2023-07-24T03:45:10;17.90;99.90
38973;DHT22;25333;50.762;4.470;2023-07-24T03:47:36;17.70;99.90
38973;DHT22;25333;50.762;4.470;2023-07-24T03:50:01;17.60;99.90
38973;DHT22;25333;50.762;4.470;2023-07-24T03:52:27;17.80;99.90
38973;DHT22;25333;50.762;4.470;2023-07-24T03:54:52;17.90;99.90
38973;DHT22;25333;50.762;4.470;2023-07-24T03:57:18;17.90;99.90
38973;DHT22;25333;50.762;4.470;2023-07-24T03:59:44;17.90;99.90
38973;DHT22;25333;50.762;4.470;2023-07-24T04:02:10;17.80;99.90
38973;DHT22;25333;50.762;4.470;2023-07-24T04:04:36;17.70;99.90
38973;DHT22;25333;50.762;4.470;2023-07-24T04:07:02;17.80;99.90
38973;DHT22;25333;50.762;4.470;2023-07-24T04:09:27;17.80;99.90
38973;DHT22;25333;50.762;4.470;2023-07-24T04:11:53;17.90;99.90
38973;DHT22;25333;50.762;4.470;2023-07-24T04:14:19;17.90;99.90
38973;DHT22;25333;50.762;4.470;2023-07-24T04:16:44;17.90;99.90
38973;DHT22;25333;50.762;4.470;2023-07-24T04:19:10;17.90;99.90
38973;DHT22;25333;50.762;4.470;2023-07-24T04:21:36;17.80;99.90
38973;DHT22;25333;50.762;4.470;2023-07-24T04:24:02;17.90;99.90
38973;DHT22;25333;50.762;4.470;2023-07-24T04:26:27;17.90;99.90
38973;DHT22;25333;50.762;4.470;2023-07-24T04:28:53;17.80;99.90
38973;DHT22;25333;50.762;4.470;2023-07-24T04:31:18;17.90;99.90
38973;DHT22;25333;50.762;4.470;2023-07-24T04:33:44;17.90;99.90
38973;DHT22;25333;50.762;4.470;2023-07-24T04:36:10;17.90;99.90
38973;DHT22;25333;50.762;4.470;2023-07-24T04:38:35;17.90;99.90
38973;DHT22;25333;50.762;4.470;2023-07-24T04:41:01;18.00;99.90
38973;DHT22;25333;50.762;4.470;2023-07-24T04:43:29;17.90;99.90
38973;DHT22;25333;50.762;4.470;2023-07-24T04:45:55;17.90;99.90
38973;DHT22;25333;50.762;4.470;2023-07-24T04:48:21;17.90;99.90
38973;DHT22;25333;50.762;4.470;2023-07-24T04:50:52;17.90;99.90
38973;DHT22;25333;50.762;4.470;2023-07-24T04:53:17;17.90;99.90
38973;DHT22;25333;50.762;4.470;2023-07-24T04:55:45;17.90;99.90
38973;DHT22;25333;50.762;4.470;2023-07-24T04:58:11;18.00;99.90
38973;DHT22;25333;50.762;4.470;2023-07-24T05:00:36;18.00;99.90
38973;DHT22;25333;50.762;4.470;2023-07-24T05:03:02;18.00;99.90
38973;DHT22;25333;50.762;4.470;2023-07-24T05:05:28;17.90;99.90
38973;DHT22;25333;50.762;4.470;2023-07-24T05:07:53;17.90;99.90
38973;DHT22;25333;50.762;4.470;2023-07-24T05:10:19;17.80;99.90
38973;DHT22;25333;50.762;4.470;2023-07-24T05:12:44;17.80;99.90
38973;DHT22;25333;50.762;4.470;2023-07-24T05:15:10;17.70;99.90
38973;DHT22;25333;50.762;4.470;2023-07-24T05:17:36;17.70;99.90
38973;DHT22;25333;50.762;4.470;2023-07-24T05:20:01;17.80;99.90
38973;DHT22;25333;50.762;4.470;2023-07-24T05:22:27;17.90;99.90
38973;DHT22;25333;50.762;4.470;2023-07-24T05:24:53;17.90;99.90
38973;DHT22;25333;50.762;4.470;2023-07-24T05:27:18;17.90;99.90
38973;DHT22;25333;50.762;4.470;2023-07-24T05:29:44;17.80;99.90
38973;DHT22;25333;50.762;4.470;2023-07-24T05:32:10;17.70;99.90
38973;DHT22;25333;50.762;4.470;2023-07-24T05:34:35;17.60;99.90
38973;DHT22;25333;50.762;4.470;2023-07-24T05:37:01;17.70;99.90
38973;DHT22;25333;50.762;4.470;2023-07-24T05:39:27;17.70;99.90
38973;DHT22;25333;50.762;4.470;2023-07-24T05:41:52;17.60;99.90
38973;DHT22;25333;50.762;4.470;2023-07-24T05:44:18;17.60;99.90
38973;DHT22;25333;50.762;4.470;2023-07-24T05:46:43;17.60;99.90
38973;DHT22;25333;50.762;4.470;2023-07-24T05:49:09;17.60;99.90
38973;DHT22;25333;50.762;4.470;2023-07-24T05:51:35;17.40;99.90
38973;DHT22;25333;50.762;4.470;2023-07-24T05:54:00;17.50;99.90
38973;DHT22;25333;50.762;4.470;2023-07-24T05:56:26;17.50;99.90
38973;DHT22;25333;50.762;4.470;2023-07-24T05:58:51;17.50;99.90
38973;DHT22;25333;50.762;4.470;2023-07-24T06:01:17;17.50;99.90
38973;DHT22;25333;50.762;4.470;2023-07-24T06:03:43;17.50;99.90
38973;DHT22;25333;50.762;4.470;2023-07-24T06:06:08;17.60;99.90
38973;DHT22;25333;50.762;4.470;2023-07-24T06:08:34;17.60;99.90
38973;DHT22;25333;50.762;4.470;2023-07-24T06:10:59;17.70;99.90
38973;DHT22;25333;50.762;4.470;2023-07-24T06:13:25;17.60;99.90
38973;DHT22;25333;50.762;4.470;2023-07-24T06:15:52;17.60;99.90
38973;DHT22;25333;50.762;4.470;2023-07-24T06:18:17;17.70;99.90
38973;DHT22;25333;50.762;4.470;2023-07-24T06:20:43;17.80;99.90
38973;DHT22;25333;50.762;4.470;2023-07-24T06:23:09;17.80;99.90
38973;DHT22;25333;50.762;4.470;2023-07-24T06:25:34;17.80;99.90
38973;DHT22;25333;50.762;4.470;2023-07-24T06:28:00;17.90;99.90
38973;DHT22;25333;50.762;4.470;2023-07-24T06:30:26;17.80;99.90
38973;DHT22;25333;50.762;4.470;2023-07-24T06:32:52;17.80;99.90
38973;DHT22;25333;50.762;4.470;2023-07-24T06:35:17;17.90;99.90
38973;DHT22;25333;50.762;4.470;2023-07-24T06:37:43;18.00;99.90
38973;DHT22;25333;50.762;4.470;2023-07-24T06:40:09;18.00;99.90
38973;DHT22;25333;50.762;4.470;2023-07-24T06:42:35;18.00;99.90
38973;DHT22;25333;50.762;4.470;2023-07-24T06:45:00;18.10;99.90
38973;DHT22;25333;50.762;4.470;2023-07-24T06:47:26;18.20;99.90
38973;DHT22;25333;50.762;4.470;2023-07-24T06:49:52;18.20;99.90
38973;DHT22;25333;50.762;4.470;2023-07-24T06:52:18;18.20;99.90
38973;DHT22;25333;50.762;4.470;2023-07-24T06:54:43;18.20;99.90
38973;DHT22;25333;50.762;4.470;2023-07-24T06:57:09;18.20;99.90
38973;DHT22;25333;50.762;4.470;2023-07-24T06:59:35;18.30;99.90
38973;DHT22;25333;50.762;4.470;2023-07-24T07:02:00;18.30;99.90
38973;DHT22;25333;50.762;4.470;2023-07-24T07:04:26;18.30;99.90
38973;DHT22;25333;50.762;4.470;2023-07-24T07:06:51;18.40;99.90
38973;DHT22;25333;50.762;4.470;2023-07-24T07:09:17;18.50;99.90
38973;DHT22;25333;50.762;4.470;2023-07-24T07:11:43;18.50;99.90
38973;DHT22;25333;50.762;4.470;2023-07-24T07:14:09;18.40;99.90
38973;DHT22;25333;50.762;4.470;2023-07-24T07:16:35;18.40;99.90
38973;DHT22;25333;50.762;4.470;2023-07-24T07:19:00;18.40;99.90
38973;DHT22;25333;50.762;4.470;2023-07-24T07:21:26;18.40;99.90
38973;DHT22;25333;50.762;4.470;2023-07-24T07:23:52;18.40;99.90
38973;DHT22;25333;50.762;4.470;2023-07-24T07:26:17;18.40;99.90
38973;DHT22;25333;50.762;4.470;2023-07-24T07:28:43;18.20;99.90
38973;DHT22;25333;50.762;4.470;2023-07-24T07:31:10;18.30;99.90
38973;DHT22;25333;50.762;4.470;2023-07-24T07:33:36;18.20;99.90
38973;DHT22;25333;50.762;4.470;2023-07-24T07:36:02;18.20;99.90
38973;DHT22;25333;50.762;4.470;2023-07-24T07:38:29;18.20;99.90
38973;DHT22;25333;50.762;4.470;2023-07-24T07:40:55;18.20;99.90
38973;DHT22;25333;50.762;4.470;2023-07-24T07:43:20;18.30;99.90
38973;DHT22;25333;50.762;4.470;2023-07-24T07:45:47;18.30;99.90
38973;DHT22;25333;50.762;4.470;2023-07-24T07:48:13;18.40;99.90
38973;DHT22;25333;50.762;4.470;2023-07-24T07:50:39;18.40;99.90
38973;DHT22;25333;50.762;4.470;2023-07-24T07:53:04;18.50;99.90
38973;DHT22;25333;50.762;4.470;2023-07-24T07:55:30;18.50;99.90
38973;DHT22;25333;50.762;4.470;2023-07-24T07:57:56;18.50;99.90
38973;DHT22;25333;50.762;4.470;2023-07-24T08:00:22;18.40;99.90
38973;DHT22;25333;50.762;4.470;2023-07-24T08:02:48;18.50;99.90
38973;DHT22;25333;50.762;4.470;2023-07-24T08:05:13;18.50;99.90
38973;DHT22;25333;50.762;4.470;2023-07-24T08:07:39;18.60;99.90
38973;DHT22;25333;50.762;4.470;2023-07-24T08:10:05;18.50;99.90
38973;DHT22;25333;50.762;4.470;2023-07-24T08:12:32;18.50;99.90
38973;DHT22;25333;50.762;4.470;2023-07-24T08:14:57;18.50;99.90
38973;DHT22;25333;50.762;4.470;2023-07-24T08:17:23;18.60;99.90
38973;DHT22;25333;50.762;4.470;2023-07-24T08:19:49;18.60;99.90
38973;DHT22;25333;50.762;4.470;2023-07-24T08:22:14;18.60;99.90
38973;DHT22;25333;50.762;4.470;2023-07-24T08:24:40;18.50;99.90
38973;DHT22;25333;50.762;4.470;2023-07-24T08:27:06;18.50;99.90
38973;DHT22;25333;50.762;4.470;2023-07-24T08:29:31;18.50;99.90
38973;DHT22;25333;50.762;4.470;2023-07-24T08:31:58;18.50;99.90
38973;DHT22;25333;50.762;4.470;2023-07-24T08:34:24;18.50;99.90
38973;DHT22;25333;50.762;4.470;2023-07-24T08:36:49;18.50;99.90
38973;DHT22;25333;50.762;4.470;2023-07-24T08:39:15;18.40;99.90
38973;DHT22;25333;50.762;4.470;2023-07-24T08:41:41;18.40;99.90
38973;DHT22;25333;50.762;4.470;2023-07-24T08:44:10;18.40;99.90
38973;DHT22;25333;50.762;4.470;2023-07-24T08:46:37;18.50;99.90
38973;DHT22;25333;50.762;4.470;2023-07-24T08:49:04;18.40;99.90
38973;DHT22;25333;50.762;4.470;2023-07-24T08:51:30;18.40;99.90
38973;DHT22;25333;50.762;4.470;2023-07-24T08:53:57;18.20;99.90
38973;DHT22;25333;50.762;4.470;2023-07-24T08:56:23;18.20;99.90
38973;DHT22;25333;50.762;4.470;2023-07-24T08:58:48;18.10;99.90
38973;DHT22;25333;50.762;4.470;2023-07-24T09:01:14;18.10;99.90
38973;DHT22;25333;50.762;4.470;2023-07-24T09:03:40;18.10;99.90
38973;DHT22;25333;50.762;4.470;2023-07-24T09:06:06;18.10;99.90
38973;DHT22;25333;50.762;4.470;2023-07-24T09:08:42;18.20;99.90
38973;DHT22;25333;50.762;4.470;2023-07-24T09:11:09;18.10;99.90
38973;DHT22;25333;50.762;4.470;2023-07-24T09:13:41;18.00;99.90
38973;DHT22;25333;50.762;4.470;2023-07-24T09:16:07;18.10;99.90
38973;DHT22;25333;50.762;4.470;2023-07-24T09:18:43;18.10;99.90
38973;DHT22;25333;50.762;4.470;2023-07-24T09:21:11;18.00;99.90
38973;DHT22;25333;50.762;4.470;2023-07-24T09:23:38;18.10;99.90
38973;DHT22;25333;50.762;4.470;2023-07-24T09:26:08;18.10;99.90
38973;DHT22;25333;50.762;4.470;2023-07-24T09:28:35;18.10;99.90
38973;DHT22;25333;50.762;4.470;2023-07-24T09:31:32;18.00;99.90
38973;DHT22;25333;50.762;4.470;2023-07-24T09:34:16;17.80;99.90
38973;DHT22;25333;50.762;4.470;2023-07-24T09:36:42;17.40;99.90
38973;DHT22;25333;50.762;4.470;2023-07-24T09:39:08;17.40;99.90
38973;DHT22;25333;50.762;4.470;2023-07-24T09:41:36;17.50;99.90
38973;DHT22;25333;50.762;4.470;2023-07-24T09:44:01;17.60;99.90
38973;DHT22;25333;50.762;4.470;2023-07-24T09:46:27;17.70;99.90
38973;DHT22;25333;50.762;4.470;2023-07-24T09:48:56;17.70;99.90
38973;DHT22;25333;50.762;4.470;2023-07-24T09:51:23;17.80;99.90
38973;DHT22;25333;50.762;4.470;2023-07-24T09:56:33;18.00;99.90
38973;DHT22;25333;50.762;4.470;2023-07-24T09:59:00;18.10;99.90
38973;DHT22;25333;50.762;4.470;2023-07-24T10:01:28;18.20;99.90
38973;DHT22;25333;50.762;4.470;2023-07-24T10:03:55;18.10;99.90
38973;DHT22;25333;50.762;4.470;2023-07-24T10:06:24;18.10;99.90
38973;DHT22;25333;50.762;4.470;2023-07-24T10:09:01;18.20;99.90
38973;DHT22;25333;50.762;4.470;2023-07-24T10:11:27;18.50;99.90
38973;DHT22;25333;50.762;4.470;2023-07-24T10:13:53;18.50;99.90
38973;DHT22;25333;50.762;4.470;2023-07-24T10:16:19;18.40;99.90
38973;DHT22;25333;50.762;4.470;2023-07-24T10:18:46;18.30;99.90
38973;DHT22;25333;50.762;4.470;2023-07-24T10:21:12;18.20;99.90
38973;DHT22;25333;50.762;4.470;2023-07-24T10:23:46;18.00;99.90
38973;DHT22;25333;50.762;4.470;2023-07-24T10:26:12;17.80;99.90
38973;DHT22;25333;50.762;4.470;2023-07-24T10:28:40;17.80;99.90
38973;DHT22;25333;50.762;4.470;2023-07-24T10:31:18;17.80;99.90
38973;DHT22;25333;50.762;4.470;2023-07-24T10:33:45;18.00;99.90
38973;DHT22;25333;50.762;4.470;2023-07-24T10:36:11;17.80;99.90
38973;DHT22;25333;50.762;4.470;2023-07-24T10:38:42;18.00;99.90
38973;DHT22;25333;50.762;4.470;2023-07-24T10:41:10;18.10;99.90
38973;DHT22;25333;50.762;4.470;2023-07-24T10:43:47;18.20;99.90
38973;DHT22;25333;50.762;4.470;2023-07-24T10:46:14;18.30;99.90
38973;DHT22;25333;50.762;4.470;2023-07-24T10:48:48;18.30;99.90
38973;DHT22;25333;50.762;4.470;2023-07-24T10:51:14;18.40;99.90
38973;DHT22;25333;50.762;4.470;2023-07-24T10:53:48;18.20;99.90
38973;DHT22;25333;50.762;4.470;2023-07-24T10:56:15;18.30;99.90
38973;DHT22;25333;50.762;4.470;2023-07-24T10:58:41;18.20;99.90
38973;DHT22;25333;50.762;4.470;2023-07-24T11:01:08;18.30;99.90
38973;DHT22;25333;50.762;4.470;2023-07-24T11:03:36;18.30;99.90
38973;DHT22;25333;50.762;4.470;2023-07-24T11:06:18;18.30;99.90
38973;DHT22;25333;50.762;4.470;2023-07-24T11:09:08;18.30;99.90
38973;DHT22;25333;50.762;4.470;2023-07-24T11:11:36;18.40;99.90
38973;DHT22;25333;50.762;4.470;2023-07-24T11:14:13;18.20;99.90
38973;DHT22;25333;50.762;4.470;2023-07-24T11:16:49;18.20;99.90
38973;DHT22;25333;50.762;4.470;2023-07-24T11:19:34;18.20;99.90
38973;DHT22;25333;50.762;4.470;2023-07-24T11:22:01;18.30;99.90
38973;DHT22;25333;50.762;4.470;2023-07-24T11:24:28;18.30;99.90
38973;DHT22;25333;50.762;4.470;2023-07-24T11:26:54;18.30;99.90
38973;DHT22;25333;50.762;4.470;2023-07-24T11:29:30;18.40;99.90
38973;DHT22;25333;50.762;4.470;2023-07-24T11:32:22;18.30;99.90
38973;DHT22;25333;50.762;4.470;2023-07-24T11:35:00;18.30;99.90
38973;DHT22;25333;50.762;4.470;2023-07-24T11:37:26;18.30;99.90
38973;DHT22;25333;50.762;4.470;2023-07-24T11:39:59;18.30;99.90
38973;DHT22;25333;50.762;4.470;2023-07-24T11:42:30;18.20;99.90
38973;DHT22;25333;50.762;4.470;2023-07-24T12:08:31;19.40;99.90
38973;DHT22;25333;50.762;4.470;2023-07-24T12:11:24;19.30;99.90
38973;DHT22;25333;50.762;4.470;2023-07-24T12:14:01;19.20;99.90
38973;DHT22;25333;50.762;4.470;2023-07-24T12:16:39;19.50;99.90
38973;DHT22;25333;50.762;4.470;2023-07-24T12:19:05;19.60;99.90
38973;DHT22;25333;50.762;4.470;2023-07-24T12:21:31;19.50;99.90
38973;DHT22;25333;50.762;4.470;2023-07-24T12:29:07;19.80;99.90
38973;DHT22;25333;50.762;4.470;2023-07-24T12:31:48;20.00;99.90
38973;DHT22;25333;50.762;4.470;2023-07-24T12:34:36;20.20;99.90
38973;DHT22;25333;50.762;4.470;2023-07-24T12:37:07;20.40;99.90
38973;DHT22;25333;50.762;4.470;2023-07-24T12:39:38;20.50;99.90
38973;DHT22;25333;50.762;4.470;2023-07-24T12:42:04;20.30;99.90
38973;DHT22;25333;50.762;4.470;2023-07-24T12:44:30;20.20;99.90
38973;DHT22;25333;50.762;4.470;2023-07-24T12:47:11;20.10;99.90
38973;DHT22;25333;50.762;4.470;2023-07-24T12:49:39;20.00;99.90
38973;DHT22;25333;50.762;4.470;2023-07-24T12:52:14;19.80;99.90
38973;DHT22;25333;50.762;4.470;2023-07-24T12:54:40;19.80;99.90
38973;DHT22;25333;50.762;4.470;2023-07-24T13:00:37;19.70;99.90
38973;DHT22;25333;50.762;4.470;2023-07-24T13:03:30;19.90;99.90
38973;DHT22;25333;50.762;4.470;2023-07-24T13:06:05;19.90;99.90
38973;DHT22;25333;50.762;4.470;2023-07-24T13:09:15;19.90;99.90
38973;DHT22;25333;50.762;4.470;2023-07-24T13:13:02;19.90;99.90
38973;DHT22;25333;50.762;4.470;2023-07-24T13:15:29;20.00;99.90
38973;DHT22;25333;50.762;4.470;2023-07-24T13:17:59;19.90;99.90
38973;DHT22;25333;50.762;4.470;2023-07-24T13:20:28;19.80;99.90
38973;DHT22;25333;50.762;4.470;2023-07-24T13:23:07;19.60;99.90
38973;DHT22;25333;50.762;4.470;2023-07-24T13:25:41;19.40;99.90
38973;DHT22;25333;50.762;4.470;2023-07-24T13:28:37;19.40;99.90
38973;DHT22;25333;50.762;4.470;2023-07-24T13:44:47;18.90;99.90
38973;DHT22;25333;50.762;4.470;2023-07-24T13:51:14;19.00;99.90
38973;DHT22;25333;50.762;4.470;2023-07-24T13:54:12;19.10;99.90
38973;DHT22;25333;50.762;4.470;2023-07-24T13:57:04;19.10;99.90
38973;DHT22;25333;50.762;4.470;2023-07-24T14:02:12;19.10;99.90
38973;DHT22;25333;50.762;4.470;2023-07-24T14:04:41;19.20;99.90
38973;DHT22;25333;50.762;4.470;2023-07-24T14:07:38;19.30;99.90
38973;DHT22;25333;50.762;4.470;2023-07-24T14:10:07;19.50;99.90
38973;DHT22;25333;50.762;4.470;2023-07-24T14:15:38;19.40;99.90
38973;DHT22;25333;50.762;4.470;2023-07-24T14:18:27;19.50;99.90
38973;DHT22;25333;50.762;4.470;2023-07-24T14:21:23;19.60;99.90
38973;DHT22;25333;50.762;4.470;2023-07-24T14:23:54;19.60;99.90
38973;DHT22;25333;50.762;4.470;2023-07-24T14:26:32;19.60;99.90
38973;DHT22;25333;50.762;4.470;2023-07-24T14:28:58;19.70;99.90
38973;DHT22;25333;50.762;4.470;2023-07-24T14:31:24;19.70;99.90
38973;DHT22;25333;50.762;4.470;2023-07-24T14:33:56;19.70;99.90
38973;DHT22;25333;50.762;4.470;2023-07-24T14:36:22;19.80;99.90
38973;DHT22;25333;50.762;4.470;2023-07-24T14:38:57;19.60;99.90
38973;DHT22;25333;50.762;4.470;2023-07-24T14:41:24;19.60;99.90
38973;DHT22;25333;50.762;4.470;2023-07-24T14:43:49;19.50;99.90
38973;DHT22;25333;50.762;4.470;2023-07-24T14:46:15;19.40;99.90
38973;DHT22;25333;50.762;4.470;2023-07-24T14:48:41;19.50;99.90
38973;DHT22;25333;50.762;4.470;2023-07-24T14:51:06;19.60;99.90
38973;DHT22;25333;50.762;4.470;2023-07-24T14:53:32;19.60;99.90
38973;DHT22;25333;50.762;4.470;2023-07-24T14:56:01;19.60;99.90
38973;DHT22;25333;50.762;4.470;2023-07-24T14:58:26;19.70;99.90
38973;DHT22;25333;50.762;4.470;2023-07-24T15:00:52;19.70;99.90
38973;DHT22;25333;50.762;4.470;2023-07-24T15:03:18;19.70;99.90
38973;DHT22;25333;50.762;4.470;2023-07-24T15:05:44;19.60;99.90
38973;DHT22;25333;50.762;4.470;2023-07-24T15:08:38;19.70;99.90
38973;DHT22;25333;50.762;4.470;2023-07-24T15:10:56;19.70;99.90
38973;DHT22;25333;50.762;4.470;2023-07-24T15:13:27;19.80;99.90
38973;DHT22;25333;50.762;4.470;2023-07-24T15:16:00;19.80;99.90
38973;DHT22;25333;50.762;4.470;2023-07-24T15:18:28;19.80;99.90
38973;DHT22;25333;50.762;4.470;2023-07-24T15:21:13;19.80;99.90
38973;DHT22;25333;50.762;4.470;2023-07-24T15:23:48;19.90;99.90
38973;DHT22;25333;50.762;4.470;2023-07-24T15:26:59;19.70;99.90
38973;DHT22;25333;50.762;4.470;2023-07-24T15:29:42;19.60;99.90
38973;DHT22;25333;50.762;4.470;2023-07-24T15:32:31;19.30;99.90
38973;DHT22;25333;50.762;4.470;2023-07-24T15:35:31;18.90;99.90
38973;DHT22;25333;50.762;4.470;2023-07-24T15:41:50;18.70;99.90
38973;DHT22;25333;50.762;4.470;2023-07-24T15:50:11;18.20;99.90
38973;DHT22;25333;50.762;4.470;2023-07-24T15:53:04;18.00;99.90
38973;DHT22;25333;50.762;4.470;2023-07-24T16:27:18;17.90;99.90
38973;DHT22;25333;50.762;4.470;2023-07-24T16:33:45;18.00;99.90
38973;DHT22;25333;50.762;4.470;2023-07-24T16:35:58;17.90;99.90
38973;DHT22;25333;50.762;4.470;2023-07-24T16:38:26;18.00;99.90
38973;DHT22;25333;50.762;4.470;2023-07-24T16:40:53;18.10;99.90
38973;DHT22;25333;50.762;4.470;2023-07-24T16:43:32;18.00;99.90
38973;DHT22;25333;50.762;4.470;2023-07-24T16:46:07;17.90;99.90
38973;DHT22;25333;50.762;4.470;2023-07-24T16:48:32;17.90;99.90
38973;DHT22;25333;50.762;4.470;2023-07-24T16:51:06;18.00;99.90
38973;DHT22;25333;50.762;4.470;2023-07-24T16:53:34;18.00;99.90
38973;DHT22;25333;50.762;4.470;2023-07-24T16:56:00;18.10;99.90
38973;DHT22;25333;50.762;4.470;2023-07-24T16:58:26;18.10;99.90
38973;DHT22;25333;50.762;4.470;2023-07-24T17:00:54;18.20;99.90
38973;DHT22;25333;50.762;4.470;2023-07-24T17:03:20;18.10;99.90
38973;DHT22;25333;50.762;4.470;2023-07-24T17:05:45;18.20;99.90
38973;DHT22;25333;50.762;4.470;2023-07-24T17:08:11;18.20;99.90
38973;DHT22;25333;50.762;4.470;2023-07-24T17:10:42;18.20;99.90
38973;DHT22;25333;50.762;4.470;2023-07-24T17:13:13;18.30;99.90
38973;DHT22;25333;50.762;4.470;2023-07-24T17:15:39;18.40;99.90
38973;DHT22;25333;50.762;4.470;2023-07-24T17:18:05;18.40;99.90
38973;DHT22;25333;50.762;4.470;2023-07-24T17:20:31;18.40;99.90
38973;DHT22;25333;50.762;4.470;2023-07-24T17:22:56;18.50;99.90